KGVT/GVT METAR and TAF weather

Enter ICAO airport designator
Station Type Date Time Source
KGVT METAR 2020/07/06 07:50 UTC NOAA

KGVT 060750Z AUTO 00000KT 10SM CLR 25/25 A2985 RMK AO2 LTG DSNT S


Station Type Date Time Source
KGVT Decoded METAR 2020/07/06 07:50 UTC NOAA

Greenville / Majors, TX, United States (KGVT) 33-04N 096-04W
Jul 06, 2020 - 03:50 AM EDT / 2020.07.06 0750 UTC
Wind: Calm:0
Visibility: 10 mile(s):0
Sky conditions: clear
Weather: Lightning observed
Temperature: 77 F (25 C)
Dew Point: 77 F (25 C)
Relative Humidity: 100%
Pressure (altimeter): 29.85 in. Hg (1010 hPa)
ob: KGVT 060750Z AUTO 00000KT 10SM CLR 25/25 A2985 RMK AO2 LTG DSNT S
cycle: 8

Station Type Date Time Source
KGVT TAF UTC NOAA

Error!

Example: see airport list